Flight Track Log - Related Links

Times and Time Zones

All times are in EDT time to prevent confusion due to time zone crossing. See the UAL395 flight status page for this flight to view local times or setup timezone preferences in your user account.

Time Position Orientation Groundspeed Altitude Reporting Facility
EDT Latitude Longitude Course Direction KTS MPH feet Rate Location/Type
Sun 02:39:05 PM 38.9333 -77.5500 277° West 188 216 2,300  Level Potomac TRACON
Sun 02:40:00 PM 38.8792 -77.9544 293° West  Level FlightAware Approximate
Sun 02:40:05 PM 38.9000 -77.6167 237° Southwest 228 262 4,700  Level Potomac TRACON
Sun 02:40:56 PM 38.8950 -77.6961 265° West 243 280 7,500 3,135 Climbing Washington Center
Sun 02:41:00 PM 38.9116 -78.0797 288° West  Level FlightAware Approximate
Sun 02:41:56 PM 38.9019 -77.7708 277° West 248 285 10,500  Level Washington Center
Sun 02:42:00 PM 38.9500 -78.2012 270° West  Level FlightAware Approximate
Sun 02:42:57 PM 38.9150 -77.8594 281° West 268 308 12,200  Level Washington Center
Sun 02:43:00 PM 38.9500 -78.3335 270° West  Level FlightAware Approximate
Sun 02:43:55 PM 38.9272 -77.9797 277° West 293 337 14,500  Level Washington Center
Sun 02:44:00 PM 38.9590 -78.4650 277° West  Level FlightAware Approximate
Sun 02:44:55 PM 38.9436 -78.0950 280° West 317 365 16,800  Level Washington Center
Sun 02:45:56 PM 38.9600 -78.2106 280° West 325 374 18,800 1,785 Climbing Washington Center
Sun 02:46:56 PM 38.9633 -78.3361 272° West 346 398 20,400 1,686 Climbing Washington Center
Sun 02:47:57 PM 38.9689 -78.4644 273° West 360 414 22,200 1,613 Climbing Washington Center
Sun 02:48:55 PM 38.9739 -78.5981 273° West 367 422 23,600 1,525 Climbing Washington Center
Sun 02:49:55 PM 38.9767 -78.7317 272° West 372 428 25,200 1,400 Climbing Washington Center
Sun 02:50:55 PM 38.9814 -78.8681 273° West 378 435 26,400 1,240 Climbing Washington Center
Sun 02:51:56 PM 38.9839 -79.0072 271° West 388 447 27,700 1,190 Climbing Washington Center
Sun 02:52:56 PM 38.9881 -79.1489 272° West 388 447 28,800 1,050 Climbing Washington Center
Sun 02:53:56 PM 38.9919 -79.2933 272° West 393 452 29,800 1,041 Climbing Washington Center
Sun 02:54:57 PM 38.9936 -79.4378 271° West 405 466 30,900 1,091 Climbing Washington Center
Sun 02:55:57 PM 38.9992 -79.5903 273° West 416 479 32,000 1,220 Climbing Washington Center
Sun 02:56:55 PM 39.0025 -79.7372 272° West 421 484 33,300 1,271 Climbing Washington Center
Sun 02:57:55 PM 39.0036 -79.8817 271° West 421 484 34,500 1,200 Climbing Washington Center
Sun 02:58:20 PM 39.0022 -79.9511 269° West 400 460 35,000 966 Climbing Indianapolis Center
Sun 02:59:22 PM 39.0039 -80.0936 271° West 395 455 35,900 484 Climbing Indianapolis Center
Sun 03:00:24 PM 39.0064 -80.2361 271° West 397 457 36,000 48 Climbing Indianapolis Center
Sun 03:01:26 PM 39.0089 -80.3775 271° West 397 457 36,000  Level Indianapolis Center
Sun 03:02:28 PM 39.0100 -80.5208 271° West 400 460 36,000  Level Indianapolis Center
Sun 03:03:30 PM 39.0125 -80.6583 271° West 388 447 36,000  Level Indianapolis Center
Sun 03:04:32 PM 39.0200 -80.7947 274° West 385 443 36,000  Level Indianapolis Center
Sun 03:05:34 PM 39.0597 -80.9231 292° West 389 448 36,000  Level Indianapolis Center
Sun 03:06:36 PM 39.1203 -81.0697 298° West 389 448 36,000  Level Indianapolis Center
Sun 03:07:37 PM 39.1725 -81.1967 298° West 401 461 36,000  Level Indianapolis Center
Sun 03:08:39 PM 39.2258 -81.3239 298° West 403 464 36,000  Level Indianapolis Center
Sun 03:10:00 PM 39.2873 -81.4699 299° West  Level FlightAware Approximate
Sun 03:10:43 PM 39.3300 -81.5819 299° West 405 466 36,000  Level Indianapolis Center
Sun 03:11:45 PM 39.3819 -81.7103 298° West 405 466 36,000  Level Indianapolis Center
Sun 03:12:47 PM 39.4442 -81.8656 297° West 406 467 36,000  Level Indianapolis Center
Sun 03:13:49 PM 39.4964 -81.9950 298° West 406 467 36,000  Level Indianapolis Center
Sun 03:14:51 PM 39.5497 -82.1306 297° West 405 466 36,000  Level Indianapolis Center
Sun 03:15:52 PM 39.6031 -82.2633 298° West 411 473 36,000  Level Indianapolis Center
Sun 03:16:54 PM 39.6561 -82.3950 298° West 410 472 36,000 -48 Level Indianapolis Center
Sun 03:17:56 PM 39.7075 -82.5269 297° West 407 468 35,900 -48 Descending Indianapolis Center
Sun 03:18:58 PM 39.7594 -82.6594 297° West 409 471 35,900  Level Indianapolis Center
Sun 03:20:00 PM 39.8108 -82.7919 297° West 408 470 35,900 48 Level Indianapolis Center
Sun 03:21:02 PM 39.8717 -82.9464 297° West 409 471 36,000 48 Climbing Indianapolis Center
Sun 03:22:04 PM 39.9225 -83.0786 297° West 407 468 36,000 -48 Level Indianapolis Center
Sun 03:23:06 PM 39.9731 -83.2089 297° West 404 465 35,900 -48 Descending Indianapolis Center
Sun 03:24:08 PM 40.0231 -83.3383 297° West 401 461 35,900  Level Indianapolis Center
Sun 03:25:10 PM 40.0711 -83.4678 296° West 398 458 35,900  Level Indianapolis Center
Sun 03:26:12 PM 40.1353 -83.5894 305° West 407 468 35,900 48 Level Indianapolis Center
Sun 03:27:14 PM 40.2103 -83.7300 305° West 403 464 36,000 49 Climbing Indianapolis Center
Sun 03:28:15 PM 40.2750 -83.8492 305° West 399 459 36,000 -49 Level Indianapolis Center
Sun 03:29:17 PM 40.3394 -83.9692 305° West 400 460 35,900 -242 Descending Indianapolis Center
Sun 03:30:19 PM 40.4039 -84.0892 305° West 400 460 35,500 -677 Descending Indianapolis Center
Sun 03:31:21 PM 40.4675 -84.2094 305° West 398 458 34,500 -774 Descending Indianapolis Center
Sun 03:32:23 PM 40.5328 -84.3317 305° West 404 465 33,900 -242 Descending Indianapolis Center
Sun 03:33:25 PM 40.5967 -84.4542 305° West 404 465 34,000  Climbing Indianapolis Center
Sun 03:34:27 PM 40.6717 -84.5953 305° West 399 459 33,900  Descending Indianapolis Center
Sun 03:35:29 PM 40.7342 -84.7150 305° West 396 456 34,000  Climbing Indianapolis Center
Sun 03:36:30 PM 40.7964 -84.8344 305° West 394 453 33,900  Descending Indianapolis Center
Sun 03:37:32 PM 40.8481 -84.9614 298° West 388 447 34,000 -415 Climbing Indianapolis Center
Sun 03:38:40 PM 40.9014 -85.0908 299° West 384 442 33,000 -923 Descending Chicago Center
Sun 03:39:42 PM 40.9531 -85.2147 299° West 383 441 32,000 -968 Descending Chicago Center
Sun 03:40:44 PM 41.0053 -85.3442 298° West 392 451 31,000 -1,065 Descending Chicago Center
Sun 03:41:46 PM 41.0692 -85.5011 298° West 401 461 29,800 -1,306 Descending Chicago Center
Sun 03:42:48 PM 41.1214 -85.6319 298° West 400 460 28,300 -1,548 Descending Chicago Center
Sun 03:43:50 PM 41.1711 -85.7536 299° West 377 434 26,600 -1,548 Descending Chicago Center
Sun 03:44:52 PM 41.2214 -85.8808 298° West 387 445 25,100 -774 Descending Chicago Center
Sun 03:45:54 PM 41.2731 -86.0122 298° West 399 459 25,000 -48 Descending Chicago Center
Sun 03:46:56 PM 41.3106 -86.1489 290° West 402 463 25,000 -480 Level Chicago Center
Sun 03:47:59 PM 41.3575 -86.2797 296° West 394 453 24,000 -1,536 Descending Chicago Center
Sun 03:49:01 PM 41.4133 -86.4350 296° West 388 447 21,800 -2,516 Descending Chicago Center
Sun 03:50:03 PM 41.4561 -86.5569 295° West 370 426 18,800 -2,710 Descending Chicago Center
Sun 03:51:05 PM 41.4997 -86.6797 295° West 368 423 16,200 -2,468 Descending Chicago Center
Sun 03:52:07 PM 41.5597 -86.7806 309° West 363 418 13,700 -1,984 Descending Chicago Center
Sun 03:53:09 PM 41.6564 -86.7936 354° North 355 409 12,100 -823 Descending Chicago Center
Sun 03:54:11 PM 41.7692 -86.8086 354° North 344 396 12,000 -242 Descending Chicago Center
Sun 03:55:13 PM 41.8636 -86.8303 350° North 348 400 11,600 -484 Descending Chicago Center
Sun 03:56:15 PM 41.9350 -86.9072 321° Northwest 334 384 11,000 -435 Descending Chicago Center
Sun 03:57:17 PM 41.9542 -87.0089 284° West 285 328 10,700 -919 Descending Chicago Center
Sun 03:58:19 PM 41.9639 -87.1067 278° West 267 307 9,100 -1,016 Descending Chicago Center
Sun 03:59:21 PM 41.9761 -87.2253 278° West 268 308 8,600 -968 Descending Chicago Center
Sun 04:00:23 PM 41.9836 -87.3225 276° West 265 305 7,100 -774 Descending Chicago Center
Sun 04:01:25 PM 41.9831 -87.4181 270° West 261 300 7,000 -288 Descending Chicago Center
Sun 04:02:28 PM 41.9825 -87.5136 270° West 260 299 6,500 -960 Descending Chicago Center
Sun 04:03:30 PM 41.9822 -87.5961 270° West 229 264 5,000 -1,548 Descending Chicago Center
Sun 04:04:32 PM 41.9847 -87.6942 272° West 222 255 3,300 -1,645 Descending Chicago Center

Login

Don't have an account? Register now (free) for customized features, flight alerts, and more!